Time;durP1;ratioP1;P1;durP2;ratioP2;P2;SDS_P1;SDS_P2;PMS_P1;PMS_P2;Temp;Humidity;BMP_temperature;BMP_pressure;BME280_temperature;BME280_humidity;BME280_pressure;Samples;Min_cycle;Max_cycle;Signal;HPM_P1;HPM_P2
2021/10/19 00:01:05;;;;;;;;;;;;;;;13.27;58.93;102419.59;5094265;28;19928;-59
2021/10/19 00:03:32;;;;;;;;;;;;;;;13.22;59.16;102424.22;5093614;28;20023;-60
2021/10/19 00:05:59;;;;;;;;;;;;;;;13.23;59.16;102418.88;5093698;28;20732;-59
2021/10/19 00:08:25;;;;;;;;;;;;;;;13.21;59.25;102420.69;5094193;28;19924;-59
2021/10/19 00:10:52;;;;;;;;;;;;;;;13.21;59.29;102427.75;5077247;28;19925;-59
2021/10/19 00:13:18;;;;;;;;;;;;;;;13.14;59.43;102421.00;5091682;28;19928;-60
2021/10/19 00:15:45;;;;;;;;;;;;;;;13.13;59.74;102430.72;5085450;28;20411;-60
2021/10/19 00:18:12;;;;;;;;;;;;;;;13.13;59.57;102430.72;5090330;28;19928;-59
2021/10/19 00:20:38;;;;;;;;;;;;;;;13.11;59.70;102431.69;5094163;28;19924;-58
2021/10/19 00:23:05;;;;;;;;;;;;;;;13.07;59.55;102430.94;5092907;28;19928;-59
2021/10/19 00:25:32;;;;;;;;;;;;;;;13.03;59.86;102432.00;5093930;28;19924;-58
2021/10/19 00:27:58;;;;;;;;;;;;;;;12.98;59.83;102426.91;5093575;28;19924;-59
2021/10/19 00:30:25;;;;;;;;;;;;;;;12.98;60.00;102432.19;5093762;28;19924;-59
2021/10/19 00:32:51;;;;;;;;;;;;;;;12.98;59.75;102426.91;5093502;28;19924;-59
2021/10/19 00:35:18;;;;;;;;;;;;;;;12.96;59.89;102436.63;5093618;28;19924;-59
2021/10/19 00:37:44;;;;;;;;;;;;;;;12.98;59.70;102442.72;5092952;28;19969;-59
2021/10/19 00:40:11;;;;;;;;;;;;;;;12.98;59.65;102444.50;5093449;28;19928;-59
2021/10/19 00:42:38;;;;;;;;;;;;;;;12.94;59.80;102443.75;5093612;28;19924;-61
2021/10/19 00:45:05;;;;;;;;;;;;;;;12.92;59.79;102453.50;5093394;28;19942;-59
2021/10/19 00:47:32;;;;;;;;;;;;;;;12.89;59.76;102465.00;5092990;28;19924;-60
2021/10/19 00:49:58;;;;;;;;;;;;;;;12.88;59.92;102471.19;5093342;28;19924;-58
2021/10/19 00:52:25;;;;;;;;;;;;;;;12.87;59.89;102479.16;5093405;28;19924;-59
2021/10/19 00:54:52;;;;;;;;;;;;;;;12.87;60.11;102474.78;5092685;28;20380;-59
2021/10/19 00:57:19;;;;;;;;;;;;;;;12.83;59.93;102472.31;5093009;28;19924;-59
2021/10/19 00:59:46;;;;;;;;;;;;;;;12.80;59.99;102475.91;5093213;28;19930;-58
2021/10/19 01:02:13;;;;;;;;;;;;;;;12.74;60.04;102478.78;5093081;28;19924;-59
2021/10/19 01:04:40;;;;;;;;;;;;;;;12.70;60.02;102478.03;5093067;28;20404;-61
2021/10/19 01:07:11;;;;;;;;;;;;;;;12.68;60.03;102482.47;5093300;28;19931;-59
2021/10/19 01:09:38;;;;;;;;;;;;;;;12.68;60.02;102474.59;5092466;28;19924;-59
2021/10/19 01:12:06;;;;;;;;;;;;;;;12.70;60.05;102471.91;5093040;28;19924;-62
2021/10/19 01:14:32;;;;;;;;;;;;;;;12.76;59.89;102468.19;5092941;28;19970;-61
2021/10/19 01:16:59;;;;;;;;;;;;;;;12.71;59.94;102471.84;5093106;28;19924;-59
2021/10/19 01:19:26;;;;;;;;;;;;;;;12.66;59.89;102465.03;5093099;28;19924;-58
2021/10/19 01:21:54;;;;;;;;;;;;;;;12.64;59.94;102467.72;5092744;28;19924;-59
2021/10/19 01:24:20;;;;;;;;;;;;;;;12.63;60.06;102466.00;5092982;28;20304;-59
2021/10/19 01:26:47;;;;;;;;;;;;;;;12.57;60.28;102459.19;5091910;28;19928;-59
2021/10/19 01:29:14;;;;;;;;;;;;;;;12.54;60.22;102468.97;5092993;28;19932;-59
2021/10/19 01:31:44;;;;;;;;;;;;;;;12.50;60.38;102468.22;5092947;28;19943;-59
2021/10/19 01:34:11;;;;;;;;;;;;;;;12.52;60.13;102473.44;5092776;28;20005;-58
2021/10/19 01:36:37;;;;;;;;;;;;;;;12.49;60.13;102473.56;5092838;28;20406;-59
2021/10/19 01:39:05;;;;;;;;;;;;;;;12.44;60.19;102467.63;5092694;28;19924;-58
2021/10/19 01:41:31;;;;;;;;;;;;;;;12.38;60.23;102463.44;5092763;28;19970;-60
2021/10/19 01:43:58;;;;;;;;;;;;;;;12.37;60.35;102464.34;5091718;28;19924;-59
2021/10/19 01:46:25;;;;;;;;;;;;;;;12.33;60.23;102463.59;5092701;28;20403;-61
2021/10/19 01:48:51;;;;;;;;;;;;;;;12.29;60.23;102464.63;5092392;28;19978;-59
2021/10/19 01:51:18;;;;;;;;;;;;;;;12.27;60.18;102470.88;5092819;28;19924;-63
2021/10/19 01:53:45;;;;;;;;;;;;;;;12.23;60.15;102460.44;5092572;28;19928;-60
2021/10/19 01:56:12;;;;;;;;;;;;;;;12.20;60.12;102473.72;5092449;28;19935;-59
2021/10/19 01:58:38;;;;;;;;;;;;;;;12.13;60.01;102477.47;5092695;28;19931;-59
2021/10/19 02:01:05;;;;;;;;;;;;;;;12.12;59.99;102464.38;5091750;28;19925;-60
2021/10/19 02:03:31;;;;;;;;;;;;;;;12.11;59.86;102468.75;5092441;28;20354;-59
2021/10/19 02:05:58;;;;;;;;;;;;;;;12.08;59.66;102472.34;5092578;28;19977;-58
2021/10/19 02:08:24;;;;;;;;;;;;;;;12.09;59.69;102474.09;5092528;28;19931;-59
2021/10/19 02:10:51;;;;;;;;;;;;;;;12.07;59.54;102465.41;5092719;28;19928;-59
2021/10/19 02:13:17;;;;;;;;;;;;;;;12.05;59.67;102469.84;5092140;28;19932;-59
2021/10/19 02:15:44;;;;;;;;;;;;;;;12.02;59.58;102472.56;5091698;28;20335;-59
2021/10/19 02:18:11;;;;;;;;;;;;;;;12.01;59.47;102464.75;5092380;28;19924;-59
2021/10/19 02:20:38;;;;;;;;;;;;;;;11.99;59.46;102463.94;5092374;28;20368;-59
2021/10/19 02:23:05;;;;;;;;;;;;;;;12.01;59.40;102462.09;5092319;28;19985;-59
2021/10/19 02:25:32;;;;;;;;;;;;;;;12.02;59.26;102469.09;5092654;28;19924;-60
2021/10/19 02:27:59;;;;;;;;;;;;;;;12.03;59.41;102466.41;5096123;28;20415;-60
2021/10/19 02:30:26;;;;;;;;;;;;;;;12.03;59.35;102457.66;5096125;28;19932;-59
2021/10/19 02:32:53;;;;;;;;;;;;;;;12.04;59.36;102460.22;5095208;28;19924;-59
2021/10/19 02:35:20;;;;;;;;;;;;;;;12.06;59.42;102458.41;5095971;28;20337;-59
2021/10/19 02:37:48;;;;;;;;;;;;;;;12.07;59.50;102451.38;5095952;28;20307;-58
2021/10/19 02:40:15;;;;;;;;;;;;;;;12.08;59.56;102448.69;5095961;28;19924;-58
2021/10/19 02:42:42;;;;;;;;;;;;;;;12.04;59.71;102457.59;5095920;28;19924;-58
2021/10/19 02:45:09;;;;;;;;;;;;;;;12.02;59.58;102454.16;5095902;28;19924;-61
2021/10/19 02:47:37;;;;;;;;;;;;;;;11.99;59.80;102458.69;5095255;28;19924;-58
2021/10/19 02:50:04;;;;;;;;;;;;;;;11.99;59.66;102458.69;5095788;28;19935;-59
2021/10/19 02:52:30;;;;;;;;;;;;;;;11.96;59.90;102458.78;5095878;28;19924;-59
2021/10/19 02:54:57;;;;;;;;;;;;;;;11.96;59.93;102458.78;5095566;28;19966;-58
2021/10/19 02:57:23;;;;;;;;;;;;;;;11.97;60.05;102444.72;5095326;28;19931;-59
2021/10/19 02:59:50;;;;;;;;;;;;;;;11.97;59.96;102450.81;5095602;28;20281;-60
2021/10/19 03:02:16;;;;;;;;;;;;;;;11.95;59.95;102450.00;5093504;28;19970;-59
2021/10/19 03:04:43;;;;;;;;;;;;;;;11.94;60.00;102450.91;5088823;28;20011;-59
2021/10/19 03:07:09;;;;;;;;;;;;;;;11.91;60.01;102457.16;5091456;28;19924;-59
2021/10/19 03:09:36;;;;;;;;;;;;;;;11.86;60.22;102455.56;5076950;28;19977;-60
2021/10/19 03:12:03;;;;;;;;;;;;;;;11.84;60.27;102457.41;5091645;28;19927;-58
2021/10/19 03:14:29;;;;;;;;;;;;;;;11.86;60.21;102459.06;5090441;28;20395;-59
2021/10/19 03:16:55;;;;;;;;;;;;;;;11.82;60.18;102459.22;5091837;28;20337;-59
2021/10/19 03:19:23;;;;;;;;;;;;;;;11.75;60.24;102464.69;5092047;28;19932;-59
2021/10/19 03:21:49;;;;;;;;;;;;;;;11.71;60.31;102463.09;5091791;28;19924;-59
2021/10/19 03:24:16;;;;;;;;;;;;;;;11.73;60.04;102468.28;5091529;28;19932;-58
2021/10/19 03:26:42;;;;;;;;;;;;;;;11.71;60.14;102465.72;5091637;28;19928;-61
2021/10/19 03:29:09;;;;;;;;;;;;;;;11.72;59.98;102470.06;5091826;28;19924;-58
2021/10/19 03:31:35;;;;;;;;;;;;;;;11.69;60.02;102471.94;5091595;28;19967;-59
2021/10/19 03:34:03;;;;;;;;;;;;;;;11.68;59.89;102471.09;5091557;28;19928;-59
2021/10/19 03:36:30;;;;;;;;;;;;;;;11.68;59.99;102481.59;5091667;28;19942;-59
2021/10/19 03:38:56;;;;;;;;;;;;;;;11.68;60.04;102483.34;5090069;28;19924;-59
2021/10/19 03:41:23;;;;;;;;;;;;;;;11.67;59.92;102481.63;5091057;28;19946;-58
2021/10/19 03:43:49;;;;;;;;;;;;;;;11.63;59.94;102487.91;5091259;28;20292;-59
2021/10/19 03:46:16;;;;;;;;;;;;;;;11.62;60.06;102491.44;5091459;28;19931;-58
2021/10/19 03:48:42;;;;;;;;;;;;;;;11.61;59.95;102487.97;5091408;28;19928;-58
2021/10/19 03:51:09;;;;;;;;;;;;;;;11.58;59.98;102498.59;5077504;28;19924;-59
2021/10/19 03:53:37;;;;;;;;;;;;;;;11.58;60.19;102494.19;5091558;28;19924;-59
2021/10/19 03:56:07;;;;;;;;;;;;;;;11.57;60.14;102507.38;5090845;28;19932;-59
2021/10/19 03:58:33;;;;;;;;;;;;;;;11.57;60.24;102512.66;5090462;28;20350;-59
2021/10/19 04:01:00;;;;;;;;;;;;;;;11.54;60.30;102507.47;5090910;28;19928;-59
2021/10/19 04:03:27;;;;;;;;;;;;;;;11.55;60.29;102503.94;5091051;28;19924;-60
2021/10/19 04:05:54;;;;;;;;;;;;;;;11.53;60.42;102506.63;5091078;28;19931;-58
2021/10/19 04:08:20;;;;;;;;;;;;;;;11.55;60.34;102514.47;5091161;28;19924;-59
2021/10/19 04:10:47;;;;;;;;;;;;;;;11.54;60.33;102512.72;5090978;28;19928;-59
2021/10/19 04:13:13;;;;;;;;;;;;;;;11.54;60.40;102521.50;5090441;28;20007;-60
2021/10/19 04:15:40;;;;;;;;;;;;;;;11.52;60.39;102531.19;5082972;28;20411;-59
2021/10/19 04:18:06;;;;;;;;;;;;;;;11.49;60.45;102536.56;5089881;28;19928;-58
2021/10/19 04:20:33;;;;;;;;;;;;;;;11.47;60.56;102534.88;5090570;28;20369;-59
2021/10/19 04:22:59;;;;;;;;;;;;;;;11.44;60.58;102528.81;5090529;28;19939;-58
2021/10/19 04:25:26;;;;;;;;;;;;;;;11.43;60.57;102529.72;5090701;28;19935;-59
2021/10/19 04:27:52;;;;;;;;;;;;;;;11.41;60.63;102525.41;5090701;28;19928;-58
2021/10/19 04:30:20;;;;;;;;;;;;;;;11.38;60.58;102526.38;5090834;28;19986;-59
2021/10/19 04:32:47;;;;;;;;;;;;;;;11.39;60.68;102508.84;5090143;28;19928;-59
2021/10/19 04:35:13;;;;;;;;;;;;;;;11.40;60.58;102505.28;5090458;28;19928;-59
2021/10/19 04:37:40;;;;;;;;;;;;;;;11.38;60.64;102515.84;5090446;28;19928;-58
2021/10/19 04:40:06;;;;;;;;;;;;;;;11.41;60.68;102510.53;5090474;28;20330;-58
2021/10/19 04:42:37;;;;;;;;;;;;;;;11.43;60.62;102516.56;5090395;28;19955;-59
2021/10/19 04:45:05;;;;;;;;;;;;;;;11.43;60.74;102503.44;5090336;28;19928;-60
2021/10/19 04:47:31;;;;;;;;;;;;;;;11.42;60.81;102506.09;5090440;28;19924;-59
2021/10/19 04:49:58;;;;;;;;;;;;;;;11.40;60.84;102506.16;5089785;28;19924;-59
2021/10/19 04:52:26;;;;;;;;;;;;;;;11.40;60.84;102505.28;5074180;28;20372;-61
2021/10/19 04:54:53;;;;;;;;;;;;;;;11.37;60.99;102502.75;5089817;28;20322;-59
2021/10/19 04:57:20;;;;;;;;;;;;;;;11.36;60.89;102508.94;5089156;28;19931;-59
2021/10/19 04:59:46;;;;;;;;;;;;;;;11.35;60.92;102501.94;5070067;28;19932;-60
2021/10/19 05:02:13;;;;;;;;;;;;;;;11.32;61.01;102507.31;5084593;28;19924;-60
2021/10/19 05:04:39;;;;;;;;;;;;;;;11.27;60.91;102499.56;5089841;28;20414;-60
2021/10/19 05:07:06;;;;;;;;;;;;;;;11.25;61.08;102501.41;5090191;28;19942;-60
2021/10/19 05:09:33;;;;;;;;;;;;;;;11.22;60.99;102501.47;5089758;28;19928;-59
2021/10/19 05:11:59;;;;;;;;;;;;;;;11.20;61.09;102506.78;5089358;28;19931;-60
2021/10/19 05:14:26;;;;;;;;;;;;;;;11.20;61.09;102512.03;5089202;28;20356;-60
2021/10/19 05:16:52;;;;;;;;;;;;;;;11.23;60.99;102513.72;5089603;28;19930;-59
2021/10/19 05:19:19;;;;;;;;;;;;;;;11.25;60.81;102517.16;5089835;28;19924;-68
2021/10/19 05:21:46;;;;;;;;;;;;;;;11.25;60.98;102517.16;5089563;28;20365;-59
2021/10/19 05:24:12;;;;;;;;;;;;;;;11.25;60.98;102520.63;5089778;28;19928;-58
2021/10/19 05:26:39;;;;;;;;;;;;;;;11.23;61.03;102525.06;5089211;28;20019;-59
2021/10/19 05:29:13;;;;;;;;;;;;;;;11.23;61.08;102517.19;5089704;28;20124;-59
2021/10/19 05:31:42;;;;;;;;;;;;;;;11.25;61.36;102514.53;5088589;28;19932;-60
2021/10/19 05:34:08;;;;;;;;;;;;;;;11.25;61.24;102512.75;5071447;28;19928;-59
2021/10/19 05:36:36;;;;;;;;;;;;;;;11.27;61.33;102518.84;5070275;28;19930;-58
2021/10/19 05:39:03;;;;;;;;;;;;;;;11.29;61.32;102526.66;5079664;28;19927;-58
2021/10/19 05:41:29;;;;;;;;;;;;;;;11.32;61.47;102520.44;5088977;28;19935;-63
2021/10/19 05:43:56;;;;;;;;;;;;;;;11.33;61.51;102524.81;5089083;28;19928;-59
2021/10/19 05:46:22;;;;;;;;;;;;;;;11.36;61.52;102514.19;5089222;28;20388;-63
2021/10/19 05:48:49;;;;;;;;;;;;;;;11.38;61.46;102513.22;5086427;28;19928;-64
2021/10/19 05:51:15;;;;;;;;;;;;;;;11.34;61.64;102519.50;5089051;28;19924;-59
2021/10/19 05:53:42;;;;;;;;;;;;;;;11.33;61.76;102522.19;5083494;28;19968;-58
2021/10/19 05:56:09;;;;;;;;;;;;;;;11.39;61.79;102522.84;5067578;28;20550;-60
2021/10/19 05:58:35;;;;;;;;;;;;;;;11.42;61.70;102529.75;5068020;28;20483;-59
2021/10/19 06:01:01;;;;;;;;;;;;;;;11.39;61.79;102530.72;5074408;28;19935;-60
2021/10/19 06:03:28;;;;;;;;;;;;;;;11.39;61.86;102519.38;5075618;28;20465;-59
2021/10/19 06:05:55;;;;;;;;;;;;;;;11.40;61.74;102534.19;5073012;28;19970;-59
2021/10/19 06:08:22;;;;;;;;;;;;;;;11.37;61.84;102532.53;5072363;28;19929;-58
2021/10/19 06:10:49;;;;;;;;;;;;;;;11.37;61.91;102537.78;5074946;28;19928;-59
2021/10/19 06:13:15;;;;;;;;;;;;;;;11.39;61.88;102535.97;5076295;28;19931;-59
2021/10/19 06:15:44;;;;;;;;;;;;;;;11.41;61.97;102535.94;5074174;28;19928;-59
2021/10/19 06:18:10;;;;;;;;;;;;;;;11.42;61.85;102541.13;5075142;28;19924;-59
2021/10/19 06:20:37;;;;;;;;;;;;;;;11.46;61.81;102541.91;5073247;28;19924;-59
2021/10/19 06:23:03;;;;;;;;;;;;;;;11.49;61.73;102544.44;5072723;28;19936;-60
2021/10/19 06:25:30;;;;;;;;;;;;;;;11.47;61.73;102541.00;5078488;28;20369;-58
2021/10/19 06:27:56;;;;;;;;;;;;;;;11.50;61.83;102543.50;5090800;28;20407;-59
2021/10/19 06:30:23;;;;;;;;;;;;;;;11.49;61.92;102543.56;5092745;28;19924;-60
2021/10/19 06:32:49;;;;;;;;;;;;;;;11.49;61.90;102543.56;5085418;28;19925;-59
2021/10/19 06:35:17;;;;;;;;;;;;;;;11.51;61.89;102547.03;5077074;28;19925;-63
2021/10/19 06:37:44;;;;;;;;;;;;;;;11.55;61.75;102540.75;5091449;28;19934;-64
2021/10/19 06:40:11;;;;;;;;;;;;;;;11.55;61.87;102546.00;5092355;28;20011;-62
2021/10/19 06:42:37;;;;;;;;;;;;;;;11.53;62.16;102540.81;5092530;28;20015;-62
2021/10/19 06:45:05;;;;;;;;;;;;;;;11.57;61.99;102547.69;5086955;28;19923;-64
2021/10/19 06:47:36;;;;;;;;;;;;;;;11.62;62.02;102555.44;5084528;28;20737;-66
2021/10/19 06:50:05;;;;;;;;;;;;;;;11.65;61.98;102555.31;5091460;28;19934;-63
2021/10/19 06:52:32;;;;;;;;;;;;;;;11.69;61.96;102554.31;5091569;28;19928;-60
2021/10/19 06:54:59;;;;;;;;;;;;;;;11.72;62.04;102554.22;5091652;28;19993;-63
2021/10/19 06:57:30;;;;;;;;;;;;;;;11.75;61.98;102558.53;5091291;28;19931;-59
2021/10/19 06:59:59;;;;;;;;;;;;;;;11.79;62.03;102561.91;5091384;28;19927;-59
2021/10/19 07:02:26;;;;;;;;;;;;;;;11.82;61.99;102564.44;5091519;28;19975;-58
2021/10/19 07:04:53;;;;;;;;;;;;;;;11.83;62.11;102567.00;5090618;28;19936;-60
2021/10/19 07:07:19;;;;;;;;;;;;;;;11.85;62.06;102565.19;5091630;28;19930;-60
2021/10/19 07:09:46;;;;;;;;;;;;;;;11.86;62.20;102560.78;5091096;28;19924;-59
2021/10/19 07:12:12;;;;;;;;;;;;;;;11.88;62.21;102557.22;5090675;28;20331;-58
2021/10/19 07:14:39;;;;;;;;;;;;;;;11.90;62.45;102552.75;5091476;28;20011;-60
2021/10/19 07:17:05;;;;;;;;;;;;;;;11.95;62.31;102555.25;5084575;28;20008;-58
2021/10/19 07:19:32;;;;;;;;;;;;;;;11.99;62.28;102556.88;5086662;28;19965;-58
2021/10/19 07:21:58;;;;;;;;;;;;;;;12.02;62.37;102548.88;5077505;28;19924;-59
2021/10/19 07:24:25;;;;;;;;;;;;;;;12.08;62.28;102550.47;5091224;28;19946;-59
2021/10/19 07:26:52;;;;;;;;;;;;;;;12.15;62.25;102551.97;5090809;28;19924;-59
2021/10/19 07:29:18;;;;;;;;;;;;;;;12.23;62.16;102557.81;5091198;28;19935;-59
2021/10/19 07:31:45;;;;;;;;;;;;;;;12.57;61.83;102559.28;5087455;28;19931;-59
2021/10/19 07:34:11;;;;;;;;;;;;;;;12.58;61.68;102570.66;5091353;28;19970;-58
2021/10/19 07:36:38;;;;;;;;;;;;;;;12.63;61.65;102581.88;5085261;28;19931;-61
2021/10/19 07:39:06;;;;;;;;;;;;;;;12.80;61.33;102590.94;5078359;28;19928;-60
2021/10/19 07:41:34;;;;;;;;;;;;;;;12.86;61.16;102591.63;5072206;28;20401;-61
2021/10/19 07:44:01;;;;;;;;;;;;;;;12.98;61.13;102597.34;5089631;28;19932;-61
2021/10/19 07:46:28;;;;;;;;;;;;;;;13.05;61.17;102590.91;5090500;28;20380;-60
2021/10/19 07:48:54;;;;;;;;;;;;;;;13.07;61.20;102584.66;5085262;28;19928;-59
2021/10/19 07:51:21;;;;;;;;;;;;;;;13.11;61.19;102589.84;5087995;28;20380;-60
2021/10/19 07:53:48;;;;;;;;;;;;;;;13.14;61.45;102600.25;5086089;28;20331;-60
2021/10/19 07:56:16;;;;;;;;;;;;;;;13.18;61.34;102601.84;5090107;28;19928;-60
2021/10/19 07:58:43;;;;;;;;;;;;;;;13.21;61.52;102592.06;5090656;28;19932;-60
2021/10/19 08:01:09;;;;;;;;;;;;;;;13.26;61.44;102589.25;5085757;28;19924;-59
2021/10/19 08:03:36;;;;;;;;;;;;;;;13.29;61.41;102594.38;5085098;28;19924;-59
2021/10/19 08:06:02;;;;;;;;;;;;;;;13.31;61.47;102603.13;5069852;28;19931;-60
2021/10/19 08:08:29;;;;;;;;;;;;;;;13.33;61.62;102605.69;5090375;28;20407;-60
2021/10/19 08:10:55;;;;;;;;;;;;;;;13.32;61.78;102599.56;5089941;28;19935;-60
2021/10/19 08:13:23;;;;;;;;;;;;;;;13.37;61.81;102605.56;5080581;28;19931;-58
2021/10/19 08:15:54;;;;;;;;;;;;;;;13.41;61.98;102614.22;5090107;28;19977;-59
2021/10/19 08:18:20;;;;;;;;;;;;;;;13.45;61.85;102613.16;5089959;28;20273;-58
2021/10/19 08:20:47;;;;;;;;;;;;;;;13.50;62.05;102605.09;5073588;28;19934;-58
2021/10/19 08:23:13;;;;;;;;;;;;;;;13.55;61.89;102606.59;5073954;28;19928;-59
2021/10/19 08:25:40;;;;;;;;;;;;;;;13.58;61.98;102602.16;5089473;28;20380;-62
2021/10/19 08:28:07;;;;;;;;;;;;;;;13.62;61.89;102603.72;5090580;28;19978;-61
2021/10/19 08:30:34;;;;;;;;;;;;;;;13.80;61.45;102591.56;5082376;28;20426;-59
2021/10/19 08:33:01;;;;;;;;;;;;;;;13.94;61.04;102591.88;5082370;28;20407;-59
2021/10/19 08:35:27;;;;;;;;;;;;;;;14.09;60.70;102590.38;5089679;28;19928;-58
2021/10/19 08:37:54;;;;;;;;;;;;;;;14.20;60.20;102588.13;5074607;28;19986;-58
2021/10/19 08:40:21;;;;;;;;;;;;;;;14.26;60.29;102594.94;5086682;28;19928;-59
2021/10/19 08:42:51;;;;;;;;;;;;;;;14.32;60.14;102592.06;5089371;28;19962;-61
2021/10/19 08:45:19;;;;;;;;;;;;;;;14.39;59.81;102589.16;5075943;28;20003;-59
2021/10/19 08:47:46;;;;;;;;;;;;;;;14.47;59.76;102585.22;5076979;28;19978;-61
2021/10/19 08:50:14;;;;;;;;;;;;;;;14.54;59.42;102578.75;5089799;28;19928;-59
2021/10/19 08:52:40;;;;;;;;;;;;;;;14.65;59.21;102580.97;5085688;28;19924;-61
2021/10/19 08:55:07;;;;;;;;;;;;;;;14.83;58.43;102581.06;5085487;28;19924;-59
2021/10/19 08:57:34;;;;;;;;;;;;;;;14.83;58.38;102584.56;5086655;28;19981;-58
2021/10/19 09:00:01;;;;;;;;;;;;;;;14.81;58.49;102591.69;5088195;28;20423;-58
2021/10/19 09:02:34;;;;;;;;;;;;;;;14.81;58.40;102590.84;5085705;28;19936;-59
2021/10/19 09:05:01;;;;;;;;;;;;;;;14.85;58.19;102595.06;5089482;28;19963;-59
2021/10/19 09:07:28;;;;;;;;;;;;;;;14.93;58.06;102602.66;5089918;28;19931;-59
2021/10/19 09:09:54;;;;;;;;;;;;;;;15.10;57.46;102599.25;5088953;28;20087;-61
2021/10/19 09:12:21;;;;;;;;;;;;;;;15.14;57.30;102584.97;5089250;28;19973;-61
2021/10/19 09:14:48;;;;;;;;;;;;;;;15.25;57.25;102589.72;5089159;28;19924;-64
2021/10/19 09:17:14;;;;;;;;;;;;;;;15.25;56.92;102577.38;5089459;28;19924;-62
2021/10/19 09:19:44;;;;;;;;;;;;;;;15.30;57.09;102591.25;5088540;28;20515;-61
2021/10/19 09:22:13;;;;;;;;;;;;;;;15.27;57.00;102586.09;5082218;28;19925;-61
2021/10/19 09:24:42;;;;;;;;;;;;;;;15.19;57.20;102581.16;5082898;28;19924;-61
2021/10/19 09:27:10;;;;;;;;;;;;;;;15.19;57.34;102578.50;5089342;28;19947;-61
2021/10/19 09:29:46;;;;;;;;;;;;;;;15.61;56.27;102565.94;5089050;28;19924;-62
2021/10/19 09:32:13;;;;;;;;;;;;;;;16.25;54.64;102565.47;5088989;28;20396;-62
2021/10/19 09:34:43;;;;;;;;;;;;;;;16.60;53.46;102574.22;5088258;28;19924;-61
2021/10/19 09:37:11;;;;;;;;;;;;;;;16.58;53.81;102575.25;5086370;28;19928;-58
2021/10/19 09:39:39;;;;;;;;;;;;;;;17.09;52.54;102578.72;5079073;28;19993;-62
2021/10/19 09:42:07;;;;;;;;;;;;;;;17.69;50.98;102571.00;5069125;28;19932;-58
2021/10/19 09:44:34;;;;;;;;;;;;;;;18.18;50.33;102562.84;5071002;28;20019;-58
2021/10/19 09:47:01;;;;;;;;;;;;;;;18.61;49.61;102567.31;5074468;28;19928;-59
2021/10/19 09:49:29;;;;;;;;;;;;;;;18.94;48.78;102566.19;5080372;28;19925;-57
2021/10/19 09:51:56;;;;;;;;;;;;;;;19.15;48.53;102579.94;5069400;28;19929;-58
2021/10/19 09:54:26;;;;;;;;;;;;;;;19.29;48.29;102579.06;5072671;28;20360;-57
2021/10/19 09:56:55;;;;;;;;;;;;;;;19.42;48.14;102579.13;5074495;28;19931;-60
2021/10/19 09:59:21;;;;;;;;;;;;;;;19.50;47.87;102571.50;5087881;28;19975;-61
2021/10/19 10:01:49;;;;;;;;;;;;;;;19.68;47.48;102576.53;5088229;28;19931;-61
2021/10/19 10:04:15;;;;;;;;;;;;;;;19.79;47.24;102563.38;5087858;28;19977;-58
2021/10/19 10:06:42;;;;;;;;;;;;;;;19.94;47.23;102561.53;5087796;28;19928;-58
2021/10/19 10:09:09;;;;;;;;;;;;;;;20.09;46.56;102564.09;5087767;28;19924;-59
2021/10/19 10:11:40;;;;;;;;;;;;;;;20.22;46.66;102562.31;5077080;28;19973;-58
2021/10/19 10:14:07;;;;;;;;;;;;;;;20.31;46.24;102564.31;5070254;28;19925;-59
2021/10/19 10:16:44;;;;;;;;;;;;;;;20.44;45.92;102561.66;5079061;28;19935;-61
2021/10/19 10:19:12;;;;;;;;;;;;;;;20.51;45.51;102562.94;5081140;28;19943;-58
2021/10/19 10:21:44;;;;;;;;;;;;;;;20.56;45.74;102558.13;5075971;28;19925;-59
2021/10/19 10:24:10;;;;;;;;;;;;;;;20.71;45.00;102560.72;5076424;28;19954;-59
2021/10/19 10:26:39;;;;;;;;;;;;;;;20.57;45.09;102553.69;5088419;28;19924;-59
2021/10/19 10:29:09;;;;;;;;;;;;;;;20.41;45.83;102543.22;5088686;28;19928;-58
2021/10/19 10:31:50;;;;;;;;;;;;;;;20.18;46.37;102544.81;5088867;28;19931;-61
2021/10/19 10:34:27;;;;;;;;;;;;;;;20.55;45.33;102536.91;5083160;28;20008;-59
2021/10/19 10:36:54;;;;;;;;;;;;;;;20.58;45.25;102528.69;5084666;28;19931;-59
2021/10/19 10:39:31;;;;;;;;;;;;;;;20.51;45.51;102522.94;5083907;28;19935;-62
2021/10/19 10:42:06;;;;;;;;;;;;;;;20.66;45.10;102518.34;5083339;28;19931;-58
2021/10/19 10:44:40;;;;;;;;;;;;;;;20.77;44.31;102520.25;5083264;28;19924;-58
2021/10/19 10:47:10;;;;;;;;;;;;;;;20.73;44.63;102515.25;5084525;28;19924;-58
2021/10/19 10:49:37;;;;;;;;;;;;;;;21.06;44.18;102509.28;5090314;28;19927;-60
2021/10/19 10:52:21;;;;;;;;;;;;;;;21.33;43.36;102502.84;5092025;28;19924;-60
2021/10/19 10:54:52;;;;;;;;;;;;;;;21.34;43.51;102491.22;5087577;28;19924;-63
2021/10/19 10:57:18;;;;;;;;;;;;;;;21.36;43.34;102495.47;5089770;28;19924;-64
2021/10/19 10:59:51;;;;;;;;;;;;;;;20.84;44.59;102494.84;5091261;28;19924;-61
2021/10/19 11:02:17;;;;;;;;;;;;;;;20.55;45.26;102489.75;5091274;28;20402;-61
2021/10/19 11:04:51;;;;;;;;;;;;;;;20.66;45.04;102485.47;5090412;28;19932;-62
2021/10/19 11:07:32;;;;;;;;;;;;;;;20.94;44.45;102481.69;5083175;28;19951;-61
2021/10/19 11:10:09;;;;;;;;;;;;;;;21.06;43.93;102473.75;5082108;28;19924;-59
2021/10/19 11:12:35;;;;;;;;;;;;;;;21.07;44.18;102473.63;5079831;28;19925;-61
2021/10/19 11:15:16;;;;;;;;;;;;;;;21.13;44.14;102472.34;5073907;28;20261;-62
2021/10/19 11:17:43;;;;;;;;;;;;;;;21.06;44.29;102463.91;5079208;28;20047;-64
2021/10/19 11:20:10;;;;;;;;;;;;;;;20.85;44.63;102458.34;5073106;28;20697;-61
2021/10/19 11:22:37;;;;;;;;;;;;;;;20.91;44.45;102465.88;5090740;28;19924;-62
2021/10/19 11:25:03;;;;;;;;;;;;;;;21.31;43.58;102452.25;5079556;28;19931;-61
2021/10/19 11:27:30;;;;;;;;;;;;;;;;;;5090201;28;19939;-61
2021/10/19 11:29:57;;;;;;;;;;;;;;;21.14;44.08;102458.88;5088948;28;20376;-58
2021/10/19 11:32:24;;;;;;;;;;;;;;;21.34;43.78;102457.38;5085250;28;19932;-61
2021/10/19 11:34:54;;;;;;;;;;;;;;;21.43;43.53;102454.97;5084558;28;19925;-62
2021/10/19 11:37:20;;;;;;;;;;;;;;;21.25;43.96;102451.88;5089058;28;19973;-62
2021/10/19 11:39:47;;;;;;;;;;;;;;;21.18;44.25;102444.31;5088600;28;19928;-66
2021/10/19 11:42:13;;;;;;;;;;;;;;;20.94;44.49;102459.47;5085814;28;19924;-59
2021/10/19 11:44:40;;;;;;;;;;;;;;;20.83;44.88;102457.59;5090054;28;20392;-59
2021/10/19 11:47:06;;;;;;;;;;;;;;;20.59;45.33;102462.88;5089327;28;19924;-61
2021/10/19 11:49:37;;;;;;;;;;;;;;;20.41;45.81;102457.88;5090098;28;20331;-59
2021/10/19 11:52:04;;;;;;;;;;;;;;;20.28;46.28;102455.25;5083450;28;19932;-60
2021/10/19 11:54:31;;;;;;;;;;;;;;;20.21;46.32;102448.63;5088505;28;19924;-58
2021/10/19 11:56:59;;;;;;;;;;;;;;;20.15;46.72;102449.06;5085950;28;20380;-60
2021/10/19 11:59:26;;;;;;;;;;;;;;;20.00;46.91;102443.84;5088354;28;19930;-60
2021/10/19 12:01:53;;;;;;;;;;;;;;;19.83;47.03;102449.50;5084020;28;19970;-59
2021/10/19 12:04:24;;;;;;;;;;;;;;;19.79;47.24;102434.66;5071823;28;20373;-59
2021/10/19 12:06:51;;;;;;;;;;;;;;;19.70;47.56;102433.47;5090566;28;19931;-60
2021/10/19 12:09:19;;;;;;;;;;;;;;;19.78;47.50;102427.63;5089726;28;19932;-59
2021/10/19 12:11:48;;;;;;;;;;;;;;;19.91;46.84;102433.84;5090075;28;19931;-64
2021/10/19 12:14:15;;;;;;;;;;;;;;;20.08;46.74;102426.50;5090431;28;19931;-60
2021/10/19 12:16:42;;;;;;;;;;;;;;;20.11;46.60;102420.94;5078309;28;19931;-59
2021/10/19 12:19:12;;;;;;;;;;;;;;;20.07;46.68;102422.94;5071423;28;19924;-58
2021/10/19 12:21:47;;;;;;;;;;;;;;;20.00;46.91;102419.03;5072055;28;19931;-63
2021/10/19 12:24:14;;;;;;;;;;;;;;;19.93;46.99;102415.94;5070212;28;19928;-61
2021/10/19 12:26:42;;;;;;;;;;;;;;;19.89;47.37;102420.63;5072175;28;19970;-66
2021/10/19 12:29:08;;;;;;;;;;;;;;;19.92;47.28;102416.03;5089185;28;19924;-65
2021/10/19 12:31:35;;;;;;;;;;;;;;;19.99;47.14;102414.66;5084554;28;19924;-61
2021/10/19 12:34:06;;;;;;;;;;;;;;;20.26;46.16;102411.84;5089800;28;19967;-62
2021/10/19 12:36:35;;;;;;;;;;;;;;;20.64;45.62;102415.38;5083829;28;19935;-63
2021/10/19 12:39:16;;;;;;;;;;;;;;;20.76;45.25;102406.50;5070623;28;20380;-65